createdAt,value
2023-01-09T00:03:14.410Z,75.15
2023-01-09T00:08:39.012Z,75.09
2023-01-09T00:14:03.455Z,75.51
2023-01-09T00:19:25.298Z,75.38
2023-01-09T00:24:47.331Z,75.16
2023-01-09T00:30:10.420Z,75.26
2023-01-09T00:35:32.171Z,75.70
2023-01-09T00:40:55.377Z,76.16
2023-01-09T00:46:19.412Z,76.36
2023-01-09T00:51:42.136Z,76.50
2023-01-09T00:57:04.000Z,76.74
2023-01-09T01:02:26.388Z,76.55
2023-01-09T01:07:48.261Z,76.60
2023-01-09T01:13:13.221Z,76.46
2023-01-09T01:18:35.078Z,76.36
2023-01-09T01:23:56.860Z,76.20
2023-01-09T01:29:18.840Z,75.62
2023-01-09T01:34:41.021Z,75.83
2023-01-09T01:40:06.842Z,75.38
2023-01-09T01:45:30.598Z,75.77
2023-01-09T01:51:03.197Z,76.07
2023-01-09T01:56:32.723Z,76.28
2023-01-09T02:01:58.721Z,76.00
2023-01-09T02:07:20.998Z,75.67
2023-01-09T02:12:42.823Z,75.65
2023-01-09T02:18:18.604Z,75.69
2023-01-09T02:23:55.529Z,76.42
2023-01-09T02:29:41.865Z,76.26
2023-01-09T02:35:29.948Z,75.95
2023-01-09T02:41:02.444Z,76.02
2023-01-09T02:46:24.083Z,76.04
2023-01-09T02:51:57.383Z,76.50
2023-01-09T02:57:30.620Z,76.66
2023-01-09T03:03:05.640Z,77.10
2023-01-09T03:08:37.036Z,77.20
2023-01-09T03:14:04.553Z,77.04
2023-01-09T03:19:30.499Z,77.27
2023-01-09T03:24:54.518Z,77.32
2023-01-09T03:30:16.737Z,77.42
2023-01-09T03:35:38.466Z,76.66
2023-01-09T03:41:01.114Z,76.47
2023-01-09T03:46:22.649Z,76.69
2023-01-09T03:51:44.727Z,77.00
2023-01-09T03:57:06.762Z,77.31
2023-01-09T04:02:28.736Z,77.57
2023-01-09T04:07:50.285Z,78.13
2023-01-09T04:13:13.467Z,78.33
2023-01-09T04:18:35.259Z,78.72
2023-01-09T04:23:57.146Z,78.94
2023-01-09T04:29:19.190Z,79.43
2023-01-09T04:34:42.098Z,79.45
2023-01-09T04:40:12.307Z,79.66
2023-01-09T04:45:34.323Z,79.45
2023-01-09T04:50:56.432Z,79.67
2023-01-09T04:56:18.160Z,79.95
2023-01-09T05:01:45.522Z,80.34
2023-01-09T05:07:07.219Z,80.63
2023-01-09T05:12:29.283Z,80.57
2023-01-09T05:17:51.058Z,80.35
2023-01-09T05:23:13.226Z,79.92
2023-01-09T05:28:35.153Z,79.98
2023-01-09T05:33:59.387Z,80.28
2023-01-09T05:39:21.429Z,80.32
2023-01-09T05:44:43.348Z,80.35
2023-01-09T05:50:06.015Z,80.38
2023-01-09T05:55:30.945Z,80.18
2023-01-09T06:00:53.788Z,80.28
2023-01-09T06:06:15.832Z,80.26
2023-01-09T06:11:38.669Z,79.78
2023-01-09T06:17:00.316Z,79.38
2023-01-09T06:22:22.377Z,78.95
2023-01-09T06:27:47.273Z,78.66
2023-01-09T06:33:09.338Z,78.51
2023-01-09T06:38:31.469Z,78.36
2023-01-09T06:43:53.353Z,78.45
2023-01-09T06:49:15.270Z,78.08
2023-01-09T06:54:37.172Z,77.81
2023-01-09T06:59:59.028Z,77.18
2023-01-09T07:05:21.021Z,76.83
2023-01-09T07:10:43.685Z,76.34
2023-01-09T07:16:06.163Z,76.29
2023-01-09T07:21:28.529Z,76.69
2023-01-09T07:26:50.211Z,76.38
2023-01-09T07:32:12.219Z,77.05
2023-01-09T07:37:34.501Z,77.18
2023-01-09T07:42:55.951Z,77.41
2023-01-09T07:48:23.176Z,77.56
2023-01-09T07:53:44.717Z,78.15
2023-01-09T07:59:06.676Z,78.47
2023-01-09T08:04:28.770Z,78.55
2023-01-09T08:09:50.794Z,79.06
2023-01-09T08:15:13.427Z,79.20
2023-01-09T08:20:35.583Z,79.04
2023-01-09T08:25:57.322Z,79.04
2023-01-09T08:31:19.371Z,79.51
2023-01-09T08:36:43.269Z,79.70
2023-01-09T08:42:24.468Z,79.72
2023-01-09T08:47:46.676Z,80.00
2023-01-09T08:53:08.376Z,80.00
2023-01-09T08:58:30.618Z,79.96
2023-01-09T09:03:52.660Z,79.59
2023-01-09T09:09:15.001Z,79.58
2023-01-09T09:14:56.307Z,79.36
2023-01-09T09:20:17.920Z,79.00
2023-01-09T09:25:39.854Z,79.18
2023-01-09T09:31:05.648Z,79.16
2023-01-09T09:36:29.230Z,79.03
2023-01-09T09:42:36.341Z,79.37
2023-01-09T09:48:07.180Z,79.20
2023-01-09T09:53:36.519Z,79.33
2023-01-09T09:59:19.641Z,79.08
2023-01-09T10:04:49.284Z,78.85
2023-01-09T10:10:17.113Z,79.09
2023-01-09T10:15:46.549Z,79.11
2023-01-09T10:21:49.273Z,79.15
2023-01-09T10:27:22.741Z,79.11
2023-01-09T10:33:02.759Z,79.24
2023-01-09T10:38:32.919Z,79.13
2023-01-09T10:44:04.628Z,79.08
2023-01-09T10:49:27.085Z,79.26
2023-01-09T10:55:03.367Z,79.15
2023-01-09T11:00:25.491Z,79.46
2023-01-09T11:05:55.228Z,79.46
2023-01-09T11:11:45.457Z,79.55
2023-01-09T11:17:19.228Z,79.69
2023-01-09T11:22:53.021Z,79.72
2023-01-09T11:28:14.533Z,79.39
2023-01-09T11:33:41.403Z,79.40
2023-01-09T11:39:06.035Z,79.49
2023-01-09T11:44:28.989Z,79.59
2023-01-09T11:49:51.412Z,79.81
2023-01-09T11:55:16.341Z,79.68
2023-01-09T12:00:47.401Z,79.86
2023-01-09T12:06:39.840Z,79.67
2023-01-09T12:12:18.352Z,79.54
2023-01-09T12:18:04.340Z,79.68
2023-01-09T12:23:49.348Z,80.05
2023-01-09T12:29:33.961Z,79.88
2023-01-09T12:35:01.089Z,79.63
2023-01-09T12:40:36.391Z,79.62
2023-01-09T12:46:07.515Z,79.28
2023-01-09T12:51:44.523Z,79.41
2023-01-09T12:57:10.391Z,79.22
2023-01-09T13:03:11.342Z,79.09
2023-01-09T13:08:42.891Z,79.01
2023-01-09T13:14:25.898Z,79.54
2023-01-09T13:19:48.330Z,79.12
2023-01-09T13:25:30.152Z,79.31
2023-01-09T13:30:58.774Z,79.32
2023-01-09T13:36:33.310Z,79.29
2023-01-09T13:42:34.232Z,79.37
2023-01-09T13:48:11.302Z,79.08
2023-01-09T13:53:35.282Z,78.80
2023-01-09T13:58:58.476Z,78.61
2023-01-09T14:04:21.424Z,78.43
2023-01-09T14:09:49.178Z,78.26
2023-01-09T14:15:26.808Z,78.24
2023-01-09T14:26:43.124Z,77.97
2023-01-09T14:32:23.527Z,77.75
2023-01-09T14:37:52.928Z,77.49
2023-01-09T14:43:24.130Z,77.46
2023-01-09T14:49:27.702Z,77.40
2023-01-09T14:54:50.668Z,77.17
2023-01-09T15:00:12.665Z,77.28
2023-01-09T15:05:34.641Z,76.90
2023-01-09T15:10:57.337Z,76.61
2023-01-09T15:16:21.027Z,76.55
2023-01-09T15:21:56.899Z,76.28
2023-01-09T15:27:26.935Z,76.44
2023-01-09T15:32:50.541Z,76.00
2023-01-09T15:38:16.014Z,76.26
2023-01-09T15:43:41.704Z,76.03
2023-01-09T15:49:04.224Z,75.75
2023-01-09T15:54:32.914Z,75.82
2023-01-09T15:59:57.720Z,75.62
2023-01-09T16:05:20.405Z,75.75
2023-01-09T16:10:44.367Z,75.29
2023-01-09T16:16:06.810Z,75.25
2023-01-09T16:21:35.127Z,75.08
2023-01-09T16:27:18.841Z,74.81
2023-01-09T16:32:47.907Z,75.12
2023-01-09T16:38:14.596Z,74.99
2023-01-09T16:43:36.264Z,75.09
2023-01-09T16:48:59.634Z,74.93
2023-01-09T16:54:21.793Z,75.16
2023-01-09T16:59:44.020Z,74.61
2023-01-09T17:05:07.157Z,74.89
2023-01-09T17:10:28.949Z,74.51
2023-01-09T17:15:52.890Z,74.53
2023-01-09T17:21:20.604Z,74.09
2023-01-09T17:27:02.911Z,74.00
2023-01-09T17:32:26.064Z,74.12
2023-01-09T17:37:48.285Z,74.06
2023-01-09T17:43:09.963Z,74.09
2023-01-09T17:48:31.809Z,74.12
2023-01-09T17:53:54.028Z,74.03
2023-01-09T17:59:16.354Z,74.07
2023-01-09T18:04:39.320Z,74.18
2023-01-09T18:10:01.938Z,74.45
2023-01-09T18:15:25.159Z,74.16
2023-01-09T18:20:50.389Z,74.37
2023-01-09T18:26:20.403Z,74.55
2023-01-09T18:31:42.663Z,74.47
2023-01-09T18:37:04.576Z,74.10
2023-01-09T18:42:26.479Z,74.21
2023-01-09T18:47:48.602Z,74.28
2023-01-09T18:53:11.010Z,74.32
2023-01-09T18:58:35.644Z,74.35
2023-01-09T19:03:59.636Z,73.93
2023-01-09T19:09:21.402Z,73.40
2023-01-09T19:14:45.148Z,73.23
2023-01-09T19:20:08.909Z,73.27
2023-01-09T19:25:30.792Z,73.04
2023-01-09T19:30:56.992Z,72.70
2023-01-09T19:36:18.877Z,72.82
2023-01-09T19:41:40.703Z,72.55
2023-01-09T19:47:02.875Z,72.59
2023-01-09T19:52:24.871Z,72.66
2023-01-09T19:57:46.868Z,72.34
2023-01-09T20:03:08.623Z,72.66
2023-01-09T20:08:30.963Z,72.76
2023-01-09T20:13:55.599Z,72.58
2023-01-09T20:19:17.431Z,72.26
2023-01-09T20:24:39.555Z,72.54
2023-01-09T20:30:01.795Z,72.40
2023-01-09T20:35:23.515Z,72.63
2023-01-09T20:40:45.638Z,72.51
2023-01-09T20:46:07.713Z,72.69
2023-01-09T20:51:29.704Z,72.51
2023-01-09T20:56:51.935Z,72.55
2023-01-09T21:02:14.969Z,72.57
2023-01-09T21:07:37.098Z,72.47
2023-01-09T21:12:59.023Z,72.64
2023-01-09T21:18:23.661Z,72.74
2023-01-09T21:23:52.224Z,72.68
2023-01-09T21:29:14.250Z,72.72
2023-01-09T21:34:36.587Z,72.65
2023-01-09T21:39:58.503Z,72.58
2023-01-09T21:45:39.023Z,72.65
2023-01-09T21:51:02.936Z,72.62
2023-01-09T21:56:28.077Z,72.52
2023-01-09T22:01:50.719Z,72.47
2023-01-09T22:07:12.642Z,72.35
2023-01-09T22:12:34.567Z,72.84
2023-01-09T22:17:56.377Z,72.63
2023-01-09T22:23:18.424Z,72.76
2023-01-09T22:28:41.072Z,72.54
2023-01-09T22:34:03.066Z,72.44
2023-01-09T22:39:25.638Z,72.72
2023-01-09T22:44:47.540Z,72.87
2023-01-09T22:50:10.187Z,72.90
2023-01-09T22:55:32.118Z,73.03
2023-01-09T23:00:54.240Z,72.53
2023-01-09T23:06:18.675Z,72.90
2023-01-09T23:11:59.273Z,72.83
2023-01-09T23:17:21.502Z,72.96
2023-01-09T23:22:43.337Z,73.00
2023-01-09T23:28:05.362Z,73.04
2023-01-09T23:33:27.093Z,72.66
2023-01-09T23:38:52.418Z,72.19
2023-01-09T23:44:16.591Z,71.79
2023-01-09T23:49:39.400Z,72.02
2023-01-09T23:55:01.343Z,71.89
